createdAt,value
2019-03-12T00:00:51.089Z,57.09
2019-03-12T00:03:22.070Z,57.39
2019-03-12T00:05:53.062Z,57.41
2019-03-12T00:08:23.975Z,57.98
2019-03-12T00:10:55.044Z,57.97
2019-03-12T00:13:25.981Z,58.29
2019-03-12T00:15:56.978Z,58.37
2019-03-12T00:18:28.563Z,58.35
2019-03-12T00:20:59.817Z,58.27
2019-03-12T00:23:30.833Z,58.74
2019-03-12T00:26:01.800Z,58.71
2019-03-12T00:28:32.793Z,58.74
2019-03-12T00:31:03.785Z,58.58
2019-03-12T00:33:34.798Z,58.50
2019-03-12T00:36:05.870Z,58.18
2019-03-12T00:38:36.925Z,57.98
2019-03-12T00:41:07.855Z,58.65
2019-03-12T00:43:38.715Z,58.09
2019-03-12T00:46:09.743Z,57.96
2019-03-12T00:48:40.673Z,57.74
2019-03-12T00:51:11.605Z,57.25
2019-03-12T00:53:42.559Z,57.57
2019-03-12T00:56:13.640Z,57.31
2019-03-12T00:58:44.562Z,56.77
2019-03-12T01:01:15.570Z,57.27
2019-03-12T01:03:46.505Z,57.29
2019-03-12T01:06:17.448Z,57.60
2019-03-12T01:08:48.380Z,57.76
2019-03-12T01:11:19.315Z,57.31
2019-03-12T01:13:50.254Z,57.12
2019-03-12T01:16:21.193Z,57.07
2019-03-12T01:18:52.129Z,57.15
2019-03-12T01:21:23.089Z,57.17
2019-03-12T01:23:53.941Z,57.06
2019-03-12T01:26:24.816Z,57.13
2019-03-12T01:28:55.789Z,56.64
2019-03-12T01:31:26.743Z,56.89
2019-03-12T01:33:57.585Z,56.69
2019-03-12T01:36:28.438Z,56.32
2019-03-12T01:38:59.515Z,56.62
2019-03-12T01:41:30.486Z,56.45
2019-03-12T01:44:01.424Z,56.69
2019-03-12T01:46:32.360Z,56.65
2019-03-12T01:49:03.350Z,56.67
2019-03-12T01:51:34.418Z,56.50
2019-03-12T01:54:06.357Z,56.35
2019-03-12T01:56:37.362Z,56.49
2019-03-12T01:59:08.395Z,56.56
2019-03-12T02:01:39.493Z,56.51
2019-03-12T02:04:10.470Z,56.39
2019-03-12T02:06:41.318Z,56.50
2019-03-12T02:09:12.190Z,56.14
2019-03-12T02:11:43.185Z,56.28
2019-03-12T02:14:24.792Z,56.53
2019-03-12T02:16:55.657Z,56.20
2019-03-12T02:19:26.676Z,56.52
2019-03-12T02:21:57.773Z,56.03
2019-03-12T02:24:28.804Z,56.05
2019-03-12T02:26:59.823Z,56.39
2019-03-12T02:29:30.819Z,56.38
2019-03-12T02:32:01.772Z,56.39
2019-03-12T02:34:33.686Z,56.32
2019-03-12T02:37:05.300Z,56.41
2019-03-12T02:39:36.213Z,56.68
2019-03-12T02:42:07.159Z,56.55
2019-03-12T02:44:38.119Z,56.62
2019-03-12T02:47:08.968Z,56.83
2019-03-12T02:49:39.869Z,56.68
2019-03-12T02:52:10.874Z,56.50
2019-03-12T02:54:41.956Z,56.15
2019-03-12T02:57:12.939Z,55.76
2019-03-12T02:59:43.842Z,56.18
2019-03-12T03:02:14.758Z,56.20
2019-03-12T03:04:45.727Z,56.36
2019-03-12T03:07:18.284Z,56.39
2019-03-12T03:09:49.236Z,56.55
2019-03-12T03:12:20.175Z,56.49
2019-03-12T03:14:51.182Z,56.80
2019-03-12T03:17:22.170Z,57.21
2019-03-12T03:19:53.191Z,56.99
2019-03-12T03:22:24.126Z,57.07
2019-03-12T03:24:55.072Z,57.02
2019-03-12T03:27:29.347Z,57.03
2019-03-12T03:33:05.888Z,57.13
2019-03-12T03:35:36.932Z,57.23
2019-03-12T03:38:07.870Z,57.56
2019-03-12T03:40:38.780Z,57.28
2019-03-12T03:43:09.912Z,57.33
2019-03-12T03:45:40.955Z,57.53
2019-03-12T03:48:12.036Z,57.53
2019-03-12T03:50:43.077Z,57.44
2019-03-12T03:53:14.099Z,57.21
2019-03-12T03:55:45.032Z,57.25
2019-03-12T03:58:15.989Z,57.64
2019-03-12T04:00:47.007Z,57.56
2019-03-12T04:03:18.035Z,57.45
2019-03-12T04:05:49.075Z,57.54
2019-03-12T04:08:20.057Z,57.58
2019-03-12T04:10:51.000Z,57.67
2019-03-12T04:13:21.858Z,57.55
2019-03-12T04:15:52.829Z,57.74
2019-03-12T04:18:23.810Z,57.66
2019-03-12T04:20:54.812Z,57.75
2019-03-12T04:23:25.788Z,57.72
2019-03-12T04:25:56.725Z,57.62
2019-03-12T04:28:27.736Z,57.93
2019-03-12T04:30:58.775Z,58.09
2019-03-12T04:34:00.661Z,58.13
2019-03-12T04:36:32.806Z,58.49
2019-03-12T04:39:05.356Z,58.50
2019-03-12T04:41:37.984Z,58.47
2019-03-12T04:44:08.843Z,58.18
2019-03-12T04:46:39.974Z,58.21
2019-03-12T04:49:11.033Z,57.78
2019-03-12T04:51:42.093Z,57.50
2019-03-12T04:54:12.987Z,57.16
2019-03-12T04:56:43.940Z,57.25
2019-03-12T04:59:14.794Z,57.03
2019-03-12T05:01:45.715Z,56.53
2019-03-12T05:04:16.760Z,56.42
2019-03-12T05:06:47.798Z,56.10
2019-03-12T05:09:18.648Z,55.87
2019-03-12T05:11:49.532Z,55.65
2019-03-12T05:14:26.120Z,55.08
2019-03-12T05:17:00.444Z,55.34
2019-03-12T05:19:31.530Z,55.12
2019-03-12T05:22:02.465Z,55.01
2019-03-12T05:24:33.490Z,54.36
2019-03-12T05:27:04.547Z,54.45
2019-03-12T05:29:35.468Z,54.70
2019-03-12T05:32:09.557Z,54.58
2019-03-12T05:34:42.296Z,54.48
2019-03-12T05:37:13.397Z,53.73
2019-03-12T05:39:44.476Z,53.84
2019-03-12T05:42:15.492Z,53.62
2019-03-12T05:44:47.392Z,53.56
2019-03-12T05:47:19.566Z,53.51
2019-03-12T05:49:51.336Z,53.41
2019-03-12T05:52:22.213Z,53.42
2019-03-12T05:54:53.071Z,53.50
2019-03-12T06:00:27.851Z,53.19
2019-03-12T06:02:58.841Z,53.05
2019-03-12T06:05:29.786Z,53.35
2019-03-12T06:08:00.804Z,53.33
2019-03-12T06:10:32.037Z,53.48
2019-03-12T06:13:03.338Z,53.94
2019-03-12T06:15:34.473Z,54.20
2019-03-12T06:18:05.526Z,54.24
2019-03-12T06:20:36.762Z,54.06
2019-03-12T06:23:08.412Z,54.86
2019-03-12T06:25:39.491Z,54.47
2019-03-12T06:28:10.664Z,54.52
2019-03-12T06:30:44.312Z,54.07
2019-03-12T06:33:17.268Z,55.04
2019-03-12T06:35:55.556Z,54.40
2019-03-12T06:38:31.660Z,53.43
2019-03-12T06:41:04.450Z,54.04
2019-03-12T06:43:53.525Z,52.56
2019-03-12T06:46:38.315Z,51.19
2019-03-12T06:49:13.641Z,53.00
2019-03-12T06:51:52.041Z,53.54
2019-03-12T06:54:24.729Z,53.83
2019-03-12T06:57:06.472Z,53.85
2019-03-12T06:59:39.181Z,54.71
2019-03-12T07:02:11.857Z,53.09
2019-03-12T07:04:57.059Z,53.79
2019-03-12T07:07:48.025Z,54.49
2019-03-12T07:10:32.889Z,54.03
2019-03-12T07:13:05.603Z,54.11
2019-03-12T07:15:40.932Z,53.06
2019-03-12T07:18:13.625Z,53.57
2019-03-12T07:20:48.981Z,54.04
2019-03-12T07:23:21.745Z,53.78
2019-03-12T07:25:56.938Z,53.34
2019-03-12T07:28:50.279Z,53.07
2019-03-12T07:31:28.434Z,53.01
2019-03-12T07:34:17.952Z,52.91
2019-03-12T07:36:56.133Z,51.73
2019-03-12T07:39:28.632Z,51.84
2019-03-12T07:42:03.898Z,51.22
2019-03-12T07:44:52.826Z,51.15
2019-03-12T07:47:43.445Z,51.47
2019-03-12T07:50:21.993Z,51.33
2019-03-12T07:52:54.510Z,49.76
2019-03-12T07:55:29.721Z,49.50
2019-03-12T07:58:01.394Z,47.86
2019-03-12T08:00:49.957Z,48.15
2019-03-12T08:03:31.299Z,48.52
2019-03-12T08:06:22.324Z,47.31
2019-03-12T08:09:04.162Z,47.68
2019-03-12T08:11:41.261Z,48.33
2019-03-12T08:14:13.914Z,47.30
2019-03-12T08:16:46.420Z,47.98
2019-03-12T08:19:35.161Z,48.31
2019-03-12T08:22:13.381Z,47.56
2019-03-12T08:24:45.936Z,46.97
2019-03-12T08:27:26.130Z,48.11
2019-03-12T08:30:16.728Z,49.35
2019-03-12T08:32:49.391Z,49.86
2019-03-12T08:35:24.799Z,49.85
2019-03-12T08:38:03.567Z,49.06
2019-03-12T08:40:52.050Z,49.17
2019-03-12T08:43:16.310Z,49.28
2019-03-12T08:45:49.834Z,48.29
2019-03-12T08:48:27.516Z,49.31
2019-03-12T08:51:05.926Z,47.99
2019-03-12T08:53:41.593Z,47.47
2019-03-12T08:56:17.910Z,47.23
2019-03-12T08:59:08.704Z,46.71
2019-03-12T09:01:43.123Z,43.78
2019-03-12T09:04:18.241Z,47.02
2019-03-12T09:06:50.960Z,44.63
2019-03-12T09:09:24.080Z,43.25
2019-03-12T09:12:08.604Z,42.64
2019-03-12T09:14:47.007Z,42.04
2019-03-12T09:17:37.816Z,42.17
2019-03-12T09:20:27.893Z,41.36
2019-03-12T09:23:00.460Z,42.35
2019-03-12T09:25:36.175Z,42.46
2019-03-12T09:28:08.803Z,43.29
2019-03-12T09:30:51.519Z,40.88
2019-03-12T09:33:35.937Z,40.96
2019-03-12T09:36:08.597Z,39.31
2019-03-12T09:38:43.766Z,40.31
2019-03-12T09:41:28.389Z,39.68
2019-03-12T09:44:00.968Z,40.44
2019-03-12T09:46:45.537Z,40.25
2019-03-12T09:49:21.380Z,41.17
2019-03-12T09:51:56.736Z,41.15
2019-03-12T09:54:44.685Z,40.75
2019-03-12T09:57:26.340Z,40.15
2019-03-12T10:00:16.029Z,39.50
2019-03-12T10:02:47.330Z,41.21
2019-03-12T10:05:19.919Z,41.84
2019-03-12T10:08:01.714Z,41.20
2019-03-12T10:10:40.446Z,40.88
2019-03-12T10:13:28.340Z,42.25
2019-03-12T10:16:01.039Z,41.16
2019-03-12T10:18:33.627Z,40.73
2019-03-12T10:21:08.837Z,40.43
2019-03-12T10:23:41.819Z,41.48
2019-03-12T10:26:19.974Z,42.65
2019-03-12T10:28:52.633Z,41.50
2019-03-12T10:31:28.126Z,40.31
2019-03-12T10:34:10.022Z,41.80
2019-03-12T10:36:45.411Z,41.19
2019-03-12T10:39:55.488Z,40.53
2019-03-12T10:42:40.391Z,40.05
2019-03-12T10:45:29.912Z,39.93
2019-03-12T10:48:01.929Z,41.93
2019-03-12T10:50:33.019Z,40.92
2019-03-12T10:53:04.065Z,38.02
2019-03-12T10:55:35.136Z,38.93
2019-03-12T10:58:06.140Z,40.39
2019-03-12T11:00:37.800Z,35.34
2019-03-12T11:03:08.751Z,35.34
2019-03-12T11:05:46.004Z,35.39
2019-03-12T11:08:12.492Z,35.41
2019-03-12T11:10:43.454Z,38.07
2019-03-12T11:13:15.087Z,37.56
2019-03-12T11:15:46.302Z,38.54
2019-03-12T11:18:17.563Z,38.77
2019-03-12T11:20:48.554Z,39.85
2019-03-12T11:23:19.633Z,39.53
2019-03-12T11:25:50.484Z,39.53
2019-03-12T11:28:21.408Z,38.69
2019-03-12T11:30:53.539Z,38.94
2019-03-12T11:33:24.572Z,39.48
2019-03-12T11:35:55.757Z,38.58
2019-03-12T11:38:26.806Z,39.03
2019-03-12T11:40:57.851Z,38.38
2019-03-12T11:43:28.885Z,38.43
2019-03-12T11:45:59.921Z,38.50
2019-03-12T11:48:30.960Z,38.77
2019-03-12T11:51:01.947Z,38.46
2019-03-12T11:53:32.961Z,38.11
2019-03-12T11:56:04.014Z,38.23
2019-03-12T11:58:35.211Z,38.29
2019-03-12T12:01:09.082Z,37.95
2019-03-12T12:03:40.070Z,38.42
2019-03-12T12:06:11.917Z,37.57
2019-03-12T12:08:43.071Z,38.23
2019-03-12T12:11:15.465Z,38.85
2019-03-12T12:13:46.538Z,38.85
2019-03-12T12:16:17.387Z,38.93
2019-03-12T12:18:48.604Z,38.99
2019-03-12T12:21:19.587Z,37.81
2019-03-12T12:23:50.582Z,38.09
2019-03-12T12:26:21.573Z,37.16
2019-03-12T12:28:52.668Z,37.42
2019-03-12T12:31:23.546Z,38.54
2019-03-12T12:33:54.599Z,38.54
2019-03-12T12:36:25.639Z,38.38
2019-03-12T12:38:56.715Z,38.09
2019-03-12T12:41:27.658Z,39.04
2019-03-12T12:43:58.586Z,38.47
2019-03-12T12:46:30.109Z,38.58
2019-03-12T12:49:01.078Z,38.56
2019-03-12T12:51:32.202Z,38.57
2019-03-12T12:54:03.355Z,38.16
2019-03-12T12:56:34.423Z,38.16
2019-03-12T12:59:05.433Z,37.38
2019-03-12T13:01:36.502Z,36.63
2019-03-12T13:04:08.423Z,36.99
2019-03-12T13:06:39.476Z,37.50
2019-03-12T13:09:10.602Z,37.50
2019-03-12T13:11:42.973Z,37.61
2019-03-12T13:14:13.949Z,38.27
2019-03-12T13:16:44.812Z,38.27
2019-03-12T13:19:15.914Z,38.14
2019-03-12T13:21:47.024Z,38.71
2019-03-12T13:24:17.933Z,38.81
2019-03-12T13:26:49.024Z,38.96
2019-03-12T13:29:20.080Z,38.11
2019-03-12T13:31:50.965Z,38.11
2019-03-12T13:34:21.818Z,38.58
2019-03-12T13:36:52.709Z,37.99
2019-03-12T13:39:24.890Z,37.99
2019-03-12T13:41:55.911Z,37.80
2019-03-12T13:44:26.869Z,37.94
2019-03-12T13:46:57.804Z,37.59
2019-03-12T13:49:28.838Z,37.54
2019-03-12T13:52:00.149Z,37.87
2019-03-12T13:54:31.254Z,38.00
2019-03-12T13:57:02.185Z,38.42
2019-03-12T13:59:33.046Z,37.22
2019-03-12T14:02:04.186Z,37.10
2019-03-12T14:04:36.383Z,37.40
2019-03-12T14:07:07.242Z,37.79
2019-03-12T14:09:38.373Z,38.02
2019-03-12T14:12:09.348Z,38.22
2019-03-12T14:14:40.482Z,38.39
2019-03-12T14:17:11.461Z,38.76
2019-03-12T14:19:42.935Z,38.68
2019-03-12T14:22:13.918Z,38.68
2019-03-12T14:24:44.779Z,38.88
2019-03-12T14:27:15.799Z,38.56
2019-03-12T14:29:46.731Z,38.27
2019-03-12T14:32:18.404Z,38.17
2019-03-12T14:34:49.907Z,38.91
2019-03-12T14:37:20.944Z,38.76
2019-03-12T14:39:51.966Z,39.55
2019-03-12T14:42:22.975Z,39.55
2019-03-12T14:44:54.017Z,39.62
2019-03-12T14:47:24.870Z,40.10
2019-03-12T14:49:55.801Z,40.10
2019-03-12T14:52:26.823Z,40.27
2019-03-12T14:54:59.772Z,40.21
2019-03-12T14:57:30.617Z,40.33
2019-03-12T15:00:01.593Z,40.73
2019-03-12T15:02:34.036Z,40.20
2019-03-12T15:05:07.483Z,40.68
2019-03-12T15:07:38.507Z,39.95
2019-03-12T15:10:11.208Z,40.04
2019-03-12T15:12:42.185Z,40.11
2019-03-12T15:15:14.384Z,40.09
2019-03-12T15:17:45.303Z,40.25
2019-03-12T15:20:16.348Z,40.39
2019-03-12T15:22:47.203Z,40.84
2019-03-12T15:25:18.266Z,40.83
2019-03-12T15:27:49.296Z,40.57
2019-03-12T15:30:22.585Z,41.05
2019-03-12T15:32:53.547Z,40.86
2019-03-12T15:35:24.467Z,40.86
2019-03-12T15:37:55.377Z,40.61
2019-03-12T15:40:26.349Z,40.75
2019-03-12T15:42:57.389Z,40.52
2019-03-12T15:45:28.325Z,40.56
2019-03-12T15:47:59.414Z,40.93
2019-03-12T15:50:30.387Z,41.08
2019-03-12T15:53:01.407Z,40.66
2019-03-12T15:55:32.702Z,41.01
2019-03-12T15:58:03.666Z,41.02
2019-03-12T16:00:34.579Z,41.37
2019-03-12T16:03:05.683Z,41.15
2019-03-12T16:05:36.673Z,40.79
2019-03-12T16:08:07.721Z,41.04
2019-03-12T16:10:38.645Z,41.05
2019-03-12T16:13:10.747Z,41.46
2019-03-12T16:15:41.604Z,41.35
2019-03-12T16:18:14.521Z,41.76
2019-03-12T16:20:45.441Z,41.91
2019-03-12T16:23:16.492Z,42.29
2019-03-12T16:25:47.535Z,42.45
2019-03-12T16:28:18.798Z,42.82
2019-03-12T16:30:50.017Z,43.07
2019-03-12T16:33:21.366Z,43.48
2019-03-12T16:35:52.642Z,43.66
2019-03-12T16:38:24.038Z,43.87
2019-03-12T16:40:55.361Z,43.79
2019-03-12T16:43:27.016Z,44.04
2019-03-12T16:45:58.385Z,44.30
2019-03-12T16:48:29.600Z,44.65
2019-03-12T16:51:00.561Z,44.56
2019-03-12T16:53:31.684Z,44.93
2019-03-12T16:56:02.938Z,44.84
2019-03-12T16:58:34.393Z,44.82
2019-03-12T17:01:05.673Z,45.15
2019-03-12T17:03:36.874Z,45.21
2019-03-12T17:06:08.275Z,45.27
2019-03-12T17:08:39.666Z,45.26
2019-03-12T17:11:11.049Z,45.34
2019-03-12T17:13:42.445Z,45.08
2019-03-12T17:16:14.008Z,45.37
2019-03-12T17:18:45.315Z,45.69
2019-03-12T17:21:16.641Z,45.48
2019-03-12T17:23:48.006Z,45.54
2019-03-12T17:26:19.434Z,45.62
2019-03-12T17:28:50.774Z,45.23
2019-03-12T17:31:22.155Z,45.27
2019-03-12T17:33:53.469Z,45.04
2019-03-12T17:36:24.810Z,45.21
2019-03-12T17:38:56.182Z,45.13
2019-03-12T17:41:27.309Z,45.24
2019-03-12T17:43:58.387Z,45.38
2019-03-12T17:46:29.499Z,45.53
2019-03-12T17:49:00.551Z,46.12
2019-03-12T17:51:31.868Z,45.50
2019-03-12T17:54:03.005Z,45.85
2019-03-12T17:56:34.501Z,45.46
2019-03-12T17:59:05.776Z,45.45
2019-03-12T18:01:37.102Z,45.79
2019-03-12T18:04:08.446Z,46.16
2019-03-12T18:06:39.738Z,46.46
2019-03-12T18:09:11.034Z,46.72
2019-03-12T18:11:42.667Z,46.98
2019-03-12T18:14:14.153Z,46.80
2019-03-12T18:16:45.530Z,46.52
2019-03-12T18:19:16.873Z,46.50
2019-03-12T18:21:48.364Z,46.97
2019-03-12T18:24:19.619Z,47.16
2019-03-12T18:26:51.067Z,47.36
2019-03-12T18:29:23.521Z,47.33
2019-03-12T18:31:54.820Z,47.36
2019-03-12T18:34:26.119Z,48.19
2019-03-12T18:36:58.345Z,48.35
2019-03-12T18:39:29.677Z,49.06
2019-03-12T18:42:01.104Z,48.88
2019-03-12T18:44:32.477Z,49.09
2019-03-12T18:47:03.763Z,49.24
2019-03-12T18:49:35.088Z,47.63
2019-03-12T18:52:06.415Z,48.16
2019-03-12T18:54:37.554Z,47.04
2019-03-12T18:57:08.812Z,47.11
2019-03-12T18:59:40.280Z,47.36
2019-03-12T19:02:11.927Z,47.32
2019-03-12T19:04:43.270Z,47.87
2019-03-12T19:07:18.328Z,47.88
2019-03-12T19:09:47.399Z,47.62
2019-03-12T19:12:18.655Z,48.12
2019-03-12T19:14:50.195Z,48.41
2019-03-12T19:17:21.569Z,48.78
2019-03-12T19:19:52.904Z,49.02
2019-03-12T19:22:24.422Z,50.79
2019-03-12T19:24:55.731Z,50.93
2019-03-12T19:27:26.987Z,51.88
2019-03-12T19:29:58.595Z,52.44
2019-03-12T19:32:31.451Z,52.15
2019-03-12T19:35:02.818Z,51.94
2019-03-12T19:37:34.355Z,52.14
2019-03-12T19:40:11.717Z,53.01
2019-03-12T19:42:44.277Z,53.20
2019-03-12T19:45:16.288Z,53.22
2019-03-12T19:47:47.532Z,54.28
2019-03-12T19:50:22.022Z,54.41
2019-03-12T19:52:53.445Z,54.67
2019-03-12T19:55:44.996Z,55.99
2019-03-12T19:58:16.268Z,56.18
2019-03-12T20:00:48.304Z,56.06
2019-03-12T20:03:19.635Z,55.37
2019-03-12T20:05:50.976Z,53.63
2019-03-12T20:08:22.219Z,53.77
2019-03-12T20:11:26.337Z,53.11
2019-03-12T20:14:16.070Z,53.44
2019-03-12T20:17:22.879Z,53.84
2019-03-12T20:20:24.583Z,53.75
2019-03-12T20:23:31.957Z,53.40
2019-03-12T20:26:24.127Z,53.48
2019-03-12T20:29:17.953Z,53.85
2019-03-12T20:32:21.843Z,54.63
2019-03-12T20:35:13.053Z,56.06
2019-03-12T20:38:20.802Z,56.99
2019-03-12T20:41:07.350Z,57.46
2019-03-12T20:43:47.551Z,57.86
2019-03-12T20:46:55.202Z,58.47
2019-03-12T20:49:55.172Z,59.03
2019-03-12T20:52:32.206Z,59.49
2019-03-12T20:55:38.354Z,59.40
2019-03-12T20:58:31.159Z,59.19
2019-03-12T21:01:38.935Z,58.29
2019-03-12T21:04:28.749Z,57.50
2019-03-12T21:07:24.513Z,58.58
2019-03-12T21:10:32.656Z,58.71
2019-03-12T21:13:16.011Z,58.97
2019-03-12T21:15:55.908Z,58.87
2019-03-12T21:18:54.148Z,59.61
2019-03-12T21:21:34.059Z,60.49
2019-03-12T21:24:20.539Z,61.14
2019-03-12T21:27:29.773Z,61.46
2019-03-12T21:29:59.930Z,61.56
2019-03-12T21:32:31.032Z,61.46
2019-03-12T21:35:02.209Z,61.31
2019-03-12T21:37:33.423Z,62.02
2019-03-12T21:40:07.439Z,62.63
2019-03-12T21:42:38.494Z,62.94
2019-03-12T21:45:11.483Z,63.20
2019-03-12T21:47:42.511Z,61.54
2019-03-12T21:50:13.570Z,62.11
2019-03-12T21:52:44.690Z,62.65
2019-03-12T21:55:15.779Z,62.23
2019-03-12T21:57:48.132Z,62.31
2019-03-12T22:00:20.813Z,62.79
2019-03-12T22:02:51.923Z,64.17
2019-03-12T22:05:23.019Z,65.13
2019-03-12T22:07:54.217Z,65.96
2019-03-12T22:10:25.300Z,65.65
2019-03-12T22:12:56.568Z,64.92
2019-03-12T22:15:29.906Z,64.70
2019-03-12T22:18:01.356Z,64.80
2019-03-12T22:20:32.438Z,64.53
2019-03-12T22:23:05.149Z,64.52
2019-03-12T22:25:37.202Z,64.38
2019-03-12T22:28:08.385Z,63.10
2019-03-12T22:30:39.551Z,62.55
2019-03-12T22:33:10.640Z,62.29
2019-03-12T22:35:41.672Z,61.88
2019-03-12T22:38:12.987Z,61.75
2019-03-12T22:40:43.998Z,61.20
2019-03-12T22:43:15.009Z,61.75
2019-03-12T22:45:46.156Z,62.13
2019-03-12T22:48:17.179Z,61.34
2019-03-12T22:50:48.222Z,61.70
2019-03-12T22:53:19.196Z,61.13
2019-03-12T22:55:50.316Z,60.82
2019-03-12T22:58:21.461Z,60.16
2019-03-12T23:01:10.626Z,59.87
2019-03-12T23:03:59.319Z,60.22
2019-03-12T23:06:48.178Z,60.37
2019-03-12T23:09:37.691Z,58.90
2019-03-12T23:12:10.320Z,58.46
2019-03-12T23:14:43.045Z,55.42
2019-03-12T23:17:15.769Z,54.29
2019-03-12T23:19:48.370Z,54.32
2019-03-12T23:22:19.658Z,54.79
2019-03-12T23:24:50.806Z,54.65
2019-03-12T23:27:22.036Z,53.78
2019-03-12T23:29:53.209Z,54.31
2019-03-12T23:32:24.320Z,53.62
2019-03-12T23:34:55.359Z,52.84
2019-03-12T23:37:26.432Z,51.99
2019-03-12T23:39:57.573Z,49.98
2019-03-12T23:42:28.626Z,49.55
2019-03-12T23:44:59.658Z,48.52
2019-03-12T23:47:30.675Z,48.00
2019-03-12T23:50:01.701Z,47.63
2019-03-12T23:52:33.721Z,47.22
2019-03-12T23:55:07.143Z,47.17
2019-03-12T23:57:38.090Z,46.91
